Time,TemperatureF,DewpointF,PressureIn,WindDirection,WindDirectionDegrees,WindSpeedMPH,WindSpeedGustMPH,Humidity,HourlyPrecipIn,Conditions,Clouds,dailyrainin,SolarRadiationWatts/m^2,SoftwareType,DateUTC
2013-01-19 00:00:00,28.0,13.0,30.42,SSW,205,1.0,4.0,53,0.00,,,0.00,0,weatherlink.com 1.10,2013-01-19 05:00:00,
2013-01-19 00:15:00,28.3,13.0,30.40,WSW,249,1.0,4.0,52,0.00,,,0.00,0,weatherlink.com 1.10,2013-01-19 05:15:00,
2013-01-19 00:45:00,29.1,12.0,30.41,SW,221,2.0,5.0,50,0.00,,,0.00,0,weatherlink.com 1.10,2013-01-19 05:45:00,
2013-01-19 01:00:00,29.0,13.0,30.41,SW,230,2.0,5.0,52,0.00,,,0.00,0,weatherlink.com 1.10,2013-01-19 06:00:00,
2013-01-19 01:15:00,28.8,13.0,30.41,SW,220,2.0,7.0,52,0.00,,,0.00,0,weatherlink.com 1.10,2013-01-19 06:15:00,
2013-01-19 01:30:00,28.5,13.0,30.41,SW,229,1.0,4.0,53,0.00,,,0.00,0,weatherlink.com 1.10,2013-01-19 06:30:00,
2013-01-19 01:45:00,28.7,13.0,30.41,South,191,1.0,7.0,53,0.00,,,0.00,0,weatherlink.com 1.10,2013-01-19 06:45:00,
2013-01-19 02:00:00,29.0,14.0,30.40,SW,224,1.0,5.0,54,0.00,,,0.00,0,weatherlink.com 1.10,2013-01-19 07:00:00,
2013-01-19 02:15:00,29.3,14.0,30.40,WSW,240,1.0,6.0,54,0.00,,,0.00,0,weatherlink.com 1.10,2013-01-19 07:15:00,
2013-01-19 02:30:00,29.6,15.0,30.40,WSW,246,5.0,7.0,55,0.00,,,0.00,0,weatherlink.com 1.10,2013-01-19 07:30:00,
2013-01-19 02:45:00,30.0,15.0,30.39,WSW,246,3.0,10.0,55,0.00,,,0.00,0,weatherlink.com 1.10,2013-01-19 07:45:00,
2013-01-19 03:00:00,30.2,16.0,30.38,SW,231,1.0,6.0,56,0.00,,,0.00,0,weatherlink.com 1.10,2013-01-19 08:00:00,
2013-01-19 03:15:00,30.3,17.0,30.38,WSW,238,4.0,8.0,58,0.00,,,0.00,0,weatherlink.com 1.10,2013-01-19 08:15:00,
2013-01-19 03:30:00,30.5,18.0,30.37,SW,236,2.0,7.0,59,0.00,,,0.00,0,weatherlink.com 1.10,2013-01-19 08:30:00,
2013-01-19 03:45:00,30.6,18.0,30.36,SW,215,1.0,5.0,59,0.00,,,0.00,0,weatherlink.com 1.10,2013-01-19 08:45:00,
2013-01-19 04:00:00,30.9,18.0,30.35,SW,232,6.0,9.0,60,0.00,,,0.00,0,weatherlink.com 1.10,2013-01-19 09:00:00,
2013-01-19 04:16:00,31.2,18.0,30.34,WSW,240,4.0,9.0,59,0.00,,,0.00,0,weatherlink.com 1.10,2013-01-19 09:16:00,
2013-01-19 04:31:00,31.5,17.0,30.34,SSE,154,1.0,7.0,56,0.00,,,0.00,0,weatherlink.com 1.10,2013-01-19 09:31:00,
2013-01-19 04:46:00,32.1,17.0,30.33,WSW,238,4.0,9.0,55,0.00,,,0.00,0,weatherlink.com 1.10,2013-01-19 09:46:00,
2013-01-19 05:01:00,32.2,18.0,30.32,WSW,257,2.0,11.0,56,0.00,,,0.00,0,weatherlink.com 1.10,2013-01-19 10:01:00,
2013-01-19 05:16:00,32.5,19.0,30.32,WSW,252,9.0,12.0,57,0.00,,,0.00,0,weatherlink.com 1.10,2013-01-19 10:16:00,
2013-01-19 05:31:00,32.6,19.0,30.32,SW,236,7.0,14.0,58,0.00,,,0.00,0,weatherlink.com 1.10,2013-01-19 10:31:00,
2013-01-19 05:46:00,32.5,19.0,30.33,WSW,245,5.0,14.0,59,0.00,,,0.00,0,weatherlink.com 1.10,2013-01-19 10:46:00,
2013-01-19 06:01:00,32.6,20.0,30.32,SSW,202,8.0,13.0,60,0.00,,,0.00,0,weatherlink.com 1.10,2013-01-19 11:01:00,
2013-01-19 08:01:00,35.0,25.0,30.30,SW,227,9.0,16.0,68,0.00,,,0.00,84,weatherlink.com 1.10,2013-01-19 13:01:00,
2013-01-19 08:16:00,35.6,26.0,30.30,WSW,244,10.0,15.0,67,0.00,,,0.00,132,weatherlink.com 1.10,2013-01-19 13:16:00,
2013-01-19 08:31:00,36.1,26.0,30.30,WSW,254,5.0,16.0,67,0.00,,,0.00,186,weatherlink.com 1.10,2013-01-19 13:31:00,
2013-01-19 08:46:00,36.6,26.0,30.29,West,262,6.0,12.0,66,0.00,,,0.00,239,weatherlink.com 1.10,2013-01-19 13:46:00,
2013-01-19 09:01:00,37.4,26.0,30.30,SW,232,4.0,17.0,64,0.00,,,0.00,281,weatherlink.com 1.10,2013-01-19 14:01:00,
2013-01-19 09:16:00,38.3,26.0,30.29,WSW,252,8.0,19.0,62,0.00,,,0.00,327,weatherlink.com 1.10,2013-01-19 14:16:00,
2013-01-19 09:32:00,39.3,26.0,30.29,SSE,168,11.0,17.0,60,0.00,,,0.00,373,weatherlink.com 1.10,2013-01-19 14:32:00,
2013-01-19 09:47:00,40.2,26.0,30.29,WSW,244,10.0,18.0,58,0.00,,,0.00,411,weatherlink.com 1.10,2013-01-19 14:47:00,
2013-01-19 10:02:00,41.0,26.0,30.28,West,259,4.0,17.0,56,0.00,,,0.00,439,weatherlink.com 1.10,2013-01-19 15:02:00,
2013-01-19 10:17:00,41.8,26.0,30.27,West,276,7.0,24.0,53,0.00,,,0.00,454,weatherlink.com 1.10,2013-01-19 15:17:00,
2013-01-19 10:32:00,42.3,26.0,30.25,WSW,237,9.0,22.0,53,0.00,,,0.00,369,weatherlink.com 1.10,2013-01-19 15:32:00,
2013-01-19 10:47:00,43.0,26.0,30.25,WSW,248,12.0,21.0,52,0.00,,,0.00,494,weatherlink.com 1.10,2013-01-19 15:47:00,
2013-01-19 11:02:00,44.1,26.0,30.23,West,262,6.0,23.0,50,0.00,,,0.00,512,weatherlink.com 1.10,2013-01-19 16:02:00,
2013-01-19 11:17:00,45.1,27.0,30.21,WSW,255,7.0,17.0,49,0.00,,,0.00,526,weatherlink.com 1.10,2013-01-19 16:17:00,
2013-01-19 11:32:00,46.1,27.0,30.20,SW,220,7.0,17.0,47,0.00,,,0.00,538,weatherlink.com 1.10,2013-01-19 16:32:00,
2013-01-19 11:47:00,46.9,26.0,30.19,West,279,7.0,17.0,45,0.00,,,0.00,545,weatherlink.com 1.10,2013-01-19 16:47:00,
2013-01-19 12:02:00,47.3,26.0,30.18,WSW,256,7.0,21.0,44,0.00,,,0.00,550,weatherlink.com 1.10,2013-01-19 17:02:00,
2013-01-19 12:17:00,48.2,26.0,30.16,West,263,5.0,16.0,43,0.00,,,0.00,550,weatherlink.com 1.10,2013-01-19 17:17:00,
2013-01-19 12:47:00,49.1,26.0,30.15,WSW,254,9.0,18.0,41,0.00,,,0.00,541,weatherlink.com 1.10,2013-01-19 17:47:00,
2013-01-19 13:02:00,49.5,26.0,30.14,WSW,252,7.0,17.0,41,0.00,,,0.00,531,weatherlink.com 1.10,2013-01-19 18:02:00,
2013-01-19 13:32:00,50.5,27.0,30.13,SW,229,10.0,16.0,40,0.00,,,0.00,499,weatherlink.com 1.10,2013-01-19 18:32:00,
2013-01-19 13:48:00,51.1,27.0,30.12,West,276,7.0,17.0,39,0.00,,,0.00,478,weatherlink.com 1.10,2013-01-19 18:48:00,
2013-01-19 14:03:00,51.9,27.0,30.11,WSW,250,3.0,16.0,38,0.00,,,0.00,452,weatherlink.com 1.10,2013-01-19 19:03:00,
2013-01-19 14:18:00,52.2,27.0,30.11,WSW,240,6.0,15.0,38,0.00,,,0.00,427,weatherlink.com 1.10,2013-01-19 19:18:00,
2013-01-19 14:33:00,52.4,27.0,30.10,SW,215,6.0,18.0,37,0.00,,,0.00,396,weatherlink.com 1.10,2013-01-19 19:33:00,
2013-01-19 14:48:00,52.9,27.0,30.10,South,173,7.0,18.0,37,0.00,,,0.00,362,weatherlink.com 1.10,2013-01-19 19:48:00,
2013-01-19 15:03:00,52.9,27.0,30.10,West,266,5.0,13.0,37,0.00,,,0.00,325,weatherlink.com 1.10,2013-01-19 20:03:00,
2013-01-19 15:33:00,53.1,27.0,30.09,SW,223,6.0,14.0,36,0.00,,,0.00,243,weatherlink.com 1.10,2013-01-19 20:33:00,
2013-01-19 16:03:00,52.7,26.0,30.08,West,271,7.0,12.0,36,0.00,,,0.00,135,weatherlink.com 1.10,2013-01-19 21:03:00,
2013-01-19 16:18:00,52.6,27.0,30.08,WSW,240,6.0,9.0,37,0.00,,,0.00,83,weatherlink.com 1.10,2013-01-19 21:18:00,
2013-01-19 16:33:00,51.7,26.0,30.07,South,180,6.0,11.0,37,0.00,,,0.00,39,weatherlink.com 1.10,2013-01-19 21:33:00,
2013-01-19 16:48:00,51.2,26.0,30.07,West,280,4.0,15.0,38,0.00,,,0.00,14,weatherlink.com 1.10,2013-01-19 21:48:00,
2013-01-19 17:18:00,49.6,27.0,30.07,West,261,5.0,7.0,42,0.00,,,0.00,0,weatherlink.com 1.10,2013-01-19 22:18:00,
2013-01-19 17:33:00,49.1,27.0,30.07,SW,223,4.0,10.0,43,0.00,,,0.00,0,weatherlink.com 1.10,2013-01-19 22:33:00,
2013-01-19 17:48:00,48.9,28.0,30.07,WSW,251,3.0,11.0,44,0.00,,,0.00,0,weatherlink.com 1.10,2013-01-19 22:48:00,
2013-01-19 18:18:00,48.1,28.0,30.07,SW,232,4.0,11.0,45,0.00,,,0.00,0,weatherlink.com 1.10,2013-01-19 23:18:00,
2013-01-19 18:33:00,47.3,27.0,30.06,WSW,256,2.0,8.0,46,0.00,,,0.00,0,weatherlink.com 1.10,2013-01-19 23:33:00,
2013-01-19 18:48:00,46.9,27.0,30.06,SW,224,3.0,9.0,47,0.00,,,0.00,0,weatherlink.com 1.10,2013-01-19 23:48:00,
2013-01-19 19:03:00,46.3,27.0,30.06,SSW,209,1.0,8.0,48,0.00,,,0.00,0,weatherlink.com 1.10,2013-01-20 00:03:00,
2013-01-19 19:18:00,46.2,27.0,30.06,West,259,3.0,8.0,48,0.00,,,0.00,0,weatherlink.com 1.10,2013-01-20 00:18:00,
2013-01-19 19:33:00,46.3,27.0,30.05,SSW,209,7.0,14.0,47,0.00,,,0.00,0,weatherlink.com 1.10,2013-01-20 00:33:00,
2013-01-19 19:48:00,46.1,27.0,30.05,SW,224,7.0,16.0,47,0.00,,,0.00,0,weatherlink.com 1.10,2013-01-20 00:48:00,
2013-01-19 20:03:00,45.8,26.0,30.04,West,266,4.0,11.0,47,0.00,,,0.00,0,weatherlink.com 1.10,2013-01-20 01:03:00,
2013-01-19 20:18:00,45.8,26.0,30.03,SW,225,7.0,12.0,47,0.00,,,0.00,0,weatherlink.com 1.10,2013-01-20 01:18:00,
2013-01-19 20:33:00,45.6,27.0,30.02,WSW,258,6.0,17.0,48,0.00,,,0.00,0,weatherlink.com 1.10,2013-01-20 01:33:00,
2013-01-19 21:18:00,44.6,29.0,30.01,SW,226,12.0,14.0,54,0.00,,,0.00,0,weatherlink.com 1.10,2013-01-20 02:18:00,
2013-01-19 21:33:00,44.3,28.0,30.00,WSW,247,10.0,19.0,53,0.00,,,0.00,0,weatherlink.com 1.10,2013-01-20 02:33:00,
2013-01-19 21:48:00,44.1,28.0,30.00,WSW,252,8.0,18.0,53,0.00,,,0.00,0,weatherlink.com 1.10,2013-01-20 02:48:00,
2013-01-19 22:03:00,43.8,27.0,29.99,SW,224,5.0,17.0,53,0.00,,,0.00,0,weatherlink.com 1.10,2013-01-20 03:03:00,
2013-01-19 22:18:00,43.7,27.0,29.99,South,180,11.0,18.0,53,0.00,,,0.00,0,weatherlink.com 1.10,2013-01-20 03:18:00,
2013-01-19 22:48:00,43.1,28.0,29.98,WNW,284,7.0,17.0,55,0.00,,,0.00,0,weatherlink.com 1.10,2013-01-20 03:48:00,
2013-01-19 23:19:00,42.8,28.0,29.96,SW,234,4.0,16.0,57,0.00,,,0.00,0,weatherlink.com 1.10,2013-01-20 04:19:00,
2013-01-19 23:33:00,42.6,28.0,29.95,SW,223,7.0,12.0,57,0.00,,,0.00,0,weatherlink.com 1.10,2013-01-20 04:33:00,
2013-01-19 23:49:00,42.6,29.0,29.94,SW,221,10.0,14.0,58,0.00,,,0.00,0,weatherlink.com 1.10,2013-01-20 04:49:00,